AAL593 MMTJ-KRNO
Flight info
| Callsign | AAL593 |
|---|---|
| Flight time | N/A |
| Altitude | 16000 |
| Route | TIJ4B TIJ J1 MZB V23 EHF/N0476F380 DCT ALTTA DCT FMG |
| Aircraft | B77W/H-SDE1E2E3FGHIJ2J3J4J5M1RWXY/LB1D1 |
Departure
| Time | 2026-04-20 19:37 |
|---|---|
| Airport | General Abelardo L. Rodriguez International Airport (MMTJ) |
Arrival
| Time | N/A |
|---|---|
| Airport | Reno Tahoe International Airport (KRNO) |
| Time | Latitude | Longitude | Altitude | Speed | Heading |
|---|---|---|---|---|---|
| 2026-04-20 19:21 | 32.54333 | -116.95848 | 490 ft | 0 kts | 9° |
| 2026-04-20 19:28 | 32.54320 | -116.95852 | 490 ft | 2 kts | 25° |
| 2026-04-20 19:28 | 32.54308 | -116.95862 | 490 ft | 2 kts | 47° |
| 2026-04-20 19:28 | 32.54299 | -116.95876 | 490 ft | 2 kts | 66° |
| 2026-04-20 19:29 | 32.54295 | -116.95894 | 490 ft | 2 kts | 85° |
| 2026-04-20 19:29 | 32.54295 | -116.95912 | 490 ft | 2 kts | 103° |
| 2026-04-20 19:29 | 32.54299 | -116.95930 | 491 ft | 2 kts | 103° |
| 2026-04-20 19:29 | 32.54302 | -116.95948 | 491 ft | 2 kts | 100° |
| 2026-04-20 19:30 | 32.54303 | -116.95956 | 491 ft | 0 kts | 100° |
| 2026-04-20 19:32 | 32.54300 | -116.95946 | 491 ft | 2 kts | 115° |
| 2026-04-20 19:32 | 32.54279 | -116.95927 | 490 ft | 5 kts | 159° |
| 2026-04-20 19:32 | 32.54224 | -116.95926 | 488 ft | 10 kts | 185° |
| 2026-04-20 19:33 | 32.54144 | -116.95927 | 485 ft | 11 kts | 140° |
| 2026-04-20 19:33 | 32.54120 | -116.95834 | 484 ft | 12 kts | 99° |
| 2026-04-20 19:33 | 32.54104 | -116.95725 | 482 ft | 14 kts | 99° |
| 2026-04-20 19:33 | 32.54085 | -116.95599 | 479 ft | 15 kts | 98° |
| 2026-04-20 19:34 | 32.54065 | -116.95461 | 475 ft | 15 kts | 125° |
| 2026-04-20 19:34 | 32.54020 | -116.95438 | 474 ft | 0 kts | 186° |
| 2026-04-20 19:35 | 32.54019 | -116.95438 | 474 ft | 0 kts | 186° |
| 2026-04-20 19:35 | 32.54001 | -116.95441 | 474 ft | 5 kts | 187° |
| 2026-04-20 19:36 | 32.53947 | -116.95451 | 473 ft | 9 kts | 203° |
| 2026-04-20 19:36 | 32.53915 | -116.95522 | 472 ft | 9 kts | 270° |
| 2026-04-20 19:36 | 32.53919 | -116.95595 | 474 ft | 7 kts | 278° |
| 2026-04-20 19:36 | 32.53927 | -116.95650 | 475 ft | 7 kts | 280° |
| 2026-04-20 19:37 | 32.53963 | -116.95911 | 481 ft | 68 kts | 278° |
| 2026-04-20 19:37 | 32.54073 | -116.96775 | 474 ft | 140 kts | 278° |
| 2026-04-20 19:37 | 32.54246 | -116.98120 | 735 ft | 175 kts | 278° |
| 2026-04-20 19:37 | 32.54303 | -116.99590 | 1478 ft | 185 kts | 259° |
| 2026-04-20 19:38 | 32.53795 | -117.01060 | 1906 ft | 192 kts | 235° |
| 2026-04-20 19:38 | 32.52937 | -117.02331 | 2086 ft | 204 kts | 243° |
| 2026-04-20 19:38 | 32.52472 | -117.03877 | 2986 ft | 195 kts | 256° |
| 2026-04-20 19:38 | 32.52172 | -117.05484 | 3676 ft | 199 kts | 258° |
| 2026-04-20 19:39 | 32.51874 | -117.07183 | 4118 ft | 216 kts | 258° |
| 2026-04-20 19:39 | 32.51545 | -117.09035 | 4602 ft | 233 kts | 257° |
| 2026-04-20 19:39 | 32.51195 | -117.10987 | 5116 ft | 249 kts | 257° |
| 2026-04-20 19:39 | 32.50818 | -117.13087 | 5647 ft | 265 kts | 257° |
| 2026-04-20 19:40 | 32.50421 | -117.15274 | 6320 ft | 275 kts | 255° |
| 2026-04-20 19:40 | 32.49585 | -117.17350 | 7108 ft | 276 kts | 230° |
| 2026-04-20 19:40 | 32.48104 | -117.18789 | 7895 ft | 277 kts | 205° |
| 2026-04-20 19:40 | 32.46213 | -117.19351 | 8698 ft | 278 kts | 180° |
| 2026-04-20 19:41 | 32.44289 | -117.18893 | 9483 ft | 281 kts | 155° |
| 2026-04-20 19:41 | 32.42697 | -117.17477 | 10204 ft | 287 kts | 131° |
| 2026-04-20 19:41 | 32.41722 | -117.15314 | 10580 ft | 308 kts | 105° |
| 2026-04-20 19:41 | 32.41696 | -117.12687 | 10919 ft | 332 kts | 77° |
| 2026-04-20 19:42 | 32.42801 | -117.10127 | 11296 ft | 355 kts | 53° |
| 2026-04-20 19:42 | 32.44460 | -117.07835 | 11784 ft | 372 kts | 49° |
| 2026-04-20 19:42 | 32.46279 | -117.05505 | 12308 ft | 388 kts | 45° |
| 2026-04-20 19:42 | 32.48497 | -117.03447 | 12922 ft | 403 kts | 32° |
| 2026-04-20 19:43 | 32.50176 | -117.02365 | 13476 ft | 409 kts | 25° |
| 2026-04-20 19:43 | 32.53848 | -117.00985 | 14808 ft | 414 kts | 9° |
| 2026-04-20 19:43 | 32.56783 | -117.00677 | 15860 ft | 419 kts | 358° |
| 2026-04-20 19:43 | 32.59701 | -117.01022 | 16868 ft | 422 kts | 347° |
| 2026-04-20 19:44 | 32.62579 | -117.02032 | 17822 ft | 426 kts | 336° |
| 2026-04-20 19:44 | 32.65239 | -117.03677 | 18774 ft | 430 kts | 324° |
| 2026-04-20 19:44 | 32.67606 | -117.05924 | 19726 ft | 433 kts | 313° |
| 2026-04-20 19:44 | 32.69165 | -117.07995 | 20475 ft | 434 kts | 306° |
| 2026-04-20 19:45 | 32.70908 | -117.11016 | 21442 ft | 438 kts | 302° |
| 2026-04-20 19:45 | 32.72702 | -117.13990 | 22321 ft | 445 kts | 306° |
| 2026-04-20 19:45 | 32.74695 | -117.16927 | 23175 ft | 452 kts | 308° |
| 2026-04-20 19:45 | 32.76830 | -117.19721 | 24001 ft | 459 kts | 314° |
| 2026-04-20 19:46 | 32.79374 | -117.22227 | 24837 ft | 467 kts | 323° |
| 2026-04-20 19:46 | 32.82197 | -117.24212 | 25627 ft | 475 kts | 332° |
| 2026-04-20 19:46 | 32.85357 | -117.25726 | 26411 ft | 483 kts | 339° |
| 2026-04-20 19:46 | 32.88600 | -117.27042 | 27190 ft | 488 kts | 339° |
| 2026-04-20 19:47 | 32.91897 | -117.28378 | 27937 ft | 494 kts | 339° |
| 2026-04-20 19:47 | 32.95214 | -117.29735 | 28685 ft | 499 kts | 339° |
| 2026-04-20 19:47 | 32.98597 | -117.31130 | 29417 ft | 504 kts | 339° |
| 2026-04-20 19:47 | 33.01920 | -117.32505 | 30308 ft | 505 kts | 338° |
| 2026-04-20 19:48 | 33.05272 | -117.33898 | 31335 ft | 501 kts | 338° |
| 2026-04-20 19:48 | 33.08589 | -117.35281 | 32367 ft | 495 kts | 338° |
| 2026-04-20 19:48 | 33.11824 | -117.36633 | 33244 ft | 492 kts | 338° |
| 2026-04-20 19:48 | 33.15140 | -117.38023 | 34002 ft | 491 kts | 338° |
| 2026-04-20 19:49 | 33.18395 | -117.39389 | 34720 ft | 491 kts | 338° |
| 2026-04-20 19:49 | 33.21608 | -117.40904 | 35469 ft | 487 kts | 330° |
| 2026-04-20 19:49 | 33.24556 | -117.42937 | 36264 ft | 479 kts | 321° |
| 2026-04-20 19:49 | 33.27180 | -117.45455 | 37002 ft | 472 kts | 313° |
| 2026-04-20 19:50 | 33.29481 | -117.48082 | 37546 ft | 471 kts | 312° |
| 2026-04-20 19:50 | 33.31871 | -117.50864 | 37996 ft | 472 kts | 312° |
| 2026-04-20 19:50 | 33.34240 | -117.53628 | 38043 ft | 476 kts | 312° |
| 2026-04-20 19:51 | 33.39039 | -117.59231 | 38046 ft | 472 kts | 312° |
| 2026-04-20 19:51 | 33.43782 | -117.64779 | 38047 ft | 473 kts | 312° |
| 2026-04-20 19:52 | 33.48530 | -117.70342 | 38049 ft | 473 kts | 311° |
| 2026-04-20 19:52 | 33.53296 | -117.75939 | 38045 ft | 473 kts | 311° |
| 2026-04-20 19:53 | 33.58048 | -117.81528 | 38048 ft | 473 kts | 311° |
| 2026-04-20 19:53 | 33.62767 | -117.87086 | 38046 ft | 474 kts | 311° |
| 2026-04-20 19:54 | 33.67543 | -117.92719 | 38047 ft | 474 kts | 311° |
| 2026-04-20 19:54 | 33.72276 | -117.98311 | 38046 ft | 475 kts | 311° |
| 2026-04-20 19:55 | 33.76287 | -118.03385 | 38046 ft | 471 kts | 303° |
| 2026-04-20 19:55 | 33.79453 | -118.10208 | 38046 ft | 460 kts | 286° |
| 2026-04-20 19:56 | 33.81387 | -118.17512 | 38057 ft | 460 kts | 283° |
| 2026-04-20 19:56 | 33.83254 | -118.24847 | 38052 ft | 457 kts | 283° |
| 2026-04-20 19:57 | 33.85233 | -118.32168 | 38053 ft | 461 kts | 289° |
| 2026-04-20 19:57 | 33.88623 | -118.38846 | 38049 ft | 470 kts | 306° |
| 2026-04-20 19:58 | 33.93605 | -118.44121 | 38046 ft | 483 kts | 324° |
| 2026-04-20 19:58 | 33.99787 | -118.47463 | 38052 ft | 490 kts | 339° |
| 2026-04-20 19:59 | 34.06322 | -118.50152 | 38049 ft | 490 kts | 337° |
| 2026-04-20 19:59 | 34.12777 | -118.53031 | 38042 ft | 489 kts | 336° |
| 2026-04-20 20:00 | 34.19200 | -118.56032 | 38043 ft | 490 kts | 335° |
| 2026-04-20 20:00 | 34.25623 | -118.59106 | 38046 ft | 489 kts | 335° |
| 2026-04-20 20:01 | 34.31938 | -118.62173 | 38052 ft | 490 kts | 335° |
| 2026-04-20 20:01 | 34.38337 | -118.65301 | 38046 ft | 492 kts | 334° |